createdAt,value
2022-12-22T00:00:58.458Z,7.79
2022-12-22T00:06:19.043Z,7.79
2022-12-22T00:11:39.791Z,7.80
2022-12-22T00:17:00.286Z,7.82
2022-12-22T00:22:25.638Z,7.85
2022-12-22T00:27:49.531Z,7.86
2022-12-22T00:33:10.145Z,7.84
2022-12-22T00:38:37.019Z,7.87
2022-12-22T00:43:57.283Z,7.85
2022-12-22T00:49:18.261Z,7.83
2022-12-22T00:54:40.492Z,7.84
2022-12-22T01:00:01.004Z,7.89
2022-12-22T01:05:21.201Z,7.89
2022-12-22T01:10:45.120Z,7.94
2022-12-22T01:16:05.709Z,7.97
2022-12-22T01:21:28.509Z,8.01
2022-12-22T01:26:49.319Z,7.98
2022-12-22T01:32:09.733Z,8.04
2022-12-22T01:37:30.228Z,8.01
2022-12-22T01:42:53.184Z,7.98
2022-12-22T01:48:13.555Z,7.98
2022-12-22T01:53:36.727Z,8.04
2022-12-22T01:59:04.155Z,8.06
2022-12-22T02:04:24.480Z,8.02
2022-12-22T02:09:56.932Z,8.07
2022-12-22T02:15:21.691Z,8.07
2022-12-22T02:20:58.887Z,8.09
2022-12-22T02:26:38.063Z,8.15
2022-12-22T02:31:58.812Z,8.11
2022-12-22T02:37:29.578Z,8.00
2022-12-22T02:42:59.368Z,8.02
2022-12-22T02:48:33.628Z,7.97
2022-12-22T02:53:54.345Z,7.99
2022-12-22T02:59:16.074Z,7.95
2022-12-22T03:04:36.265Z,7.89
2022-12-22T03:09:56.671Z,7.95
2022-12-22T03:15:17.072Z,7.92
2022-12-22T03:20:37.429Z,7.89
2022-12-22T03:25:54.474Z,7.97
2022-12-22T03:30:59.252Z,7.91
2022-12-22T03:36:01.672Z,7.89
2022-12-22T03:41:03.538Z,7.93
2022-12-22T03:46:24.225Z,7.98
2022-12-22T03:51:25.961Z,7.99
2022-12-22T03:56:27.616Z,7.88
2022-12-22T04:01:29.506Z,7.96
2022-12-22T04:06:31.346Z,7.95
2022-12-22T04:11:51.601Z,7.96
2022-12-22T04:16:53.229Z,7.93
2022-12-22T04:21:54.915Z,7.83
2022-12-22T04:26:56.618Z,7.89
2022-12-22T04:31:58.258Z,7.92
2022-12-22T04:37:09.873Z,7.95
2022-12-22T04:42:16.584Z,7.93
2022-12-22T04:47:18.419Z,7.91
2022-12-22T04:52:20.095Z,7.91
2022-12-22T04:57:21.823Z,7.93
2022-12-22T05:02:23.491Z,7.96
2022-12-22T05:07:25.279Z,7.90
2022-12-22T05:12:45.656Z,7.93
2022-12-22T05:17:47.923Z,7.96
2022-12-22T05:22:50.061Z,7.82
2022-12-22T05:27:51.744Z,7.85
2022-12-22T05:32:53.561Z,7.90
2022-12-22T05:37:55.243Z,7.89
2022-12-22T05:42:56.905Z,7.91
2022-12-22T05:47:58.594Z,7.92
2022-12-22T05:53:00.288Z,7.89
2022-12-22T05:58:02.361Z,7.86
2022-12-22T06:03:04.170Z,7.79
2022-12-22T06:08:05.884Z,7.74
2022-12-22T06:13:07.511Z,7.74
2022-12-22T06:18:09.119Z,7.76
2022-12-22T06:23:10.787Z,7.75
2022-12-22T06:28:12.481Z,7.72
2022-12-22T06:33:14.063Z,7.71
2022-12-22T06:38:15.623Z,7.68
2022-12-22T06:43:17.286Z,7.63
2022-12-22T06:48:19.579Z,7.60
2022-12-22T06:53:21.223Z,7.59
2022-12-22T06:58:22.953Z,7.58
2022-12-22T07:03:24.729Z,7.58
2022-12-22T07:08:26.533Z,7.53
2022-12-22T07:13:35.561Z,7.54
2022-12-22T07:18:40.579Z,7.55
2022-12-22T07:23:42.296Z,7.54
2022-12-22T07:28:44.265Z,7.50
2022-12-22T07:33:45.924Z,7.45
2022-12-22T07:38:50.369Z,7.40
2022-12-22T07:43:57.642Z,7.39
2022-12-22T07:49:17.942Z,7.36
2022-12-22T07:54:19.603Z,7.34
2022-12-22T07:59:21.347Z,7.28
2022-12-22T08:04:23.126Z,7.25
2022-12-22T08:09:24.911Z,7.23
2022-12-22T08:14:26.719Z,7.21
2022-12-22T08:19:28.572Z,7.09
2022-12-22T08:24:30.583Z,7.01
2022-12-22T08:29:36.489Z,6.97
2022-12-22T08:34:38.179Z,6.93
2022-12-22T08:39:43.319Z,6.86
2022-12-22T08:44:46.061Z,6.86
2022-12-22T08:49:48.604Z,6.86
2022-12-22T08:54:50.344Z,6.96
2022-12-22T08:59:52.014Z,7.00
2022-12-22T09:04:53.573Z,7.02
2022-12-22T09:09:55.121Z,6.98
2022-12-22T09:14:56.995Z,7.04
2022-12-22T09:19:58.564Z,6.91
2022-12-22T09:25:00.179Z,6.80
2022-12-22T09:30:01.907Z,6.90
2022-12-22T09:35:03.809Z,6.96
2022-12-22T09:40:06.429Z,6.95
2022-12-22T09:45:19.971Z,6.99
2022-12-22T09:50:24.637Z,7.10
2022-12-22T09:55:37.853Z,7.07
2022-12-22T10:00:39.747Z,7.11
2022-12-22T10:05:59.724Z,7.13
2022-12-22T10:11:01.446Z,7.19
2022-12-22T10:16:17.076Z,7.23
2022-12-22T10:21:23.449Z,7.35
2022-12-22T10:26:33.921Z,7.37
2022-12-22T10:31:39.718Z,7.39
2022-12-22T10:36:49.955Z,7.44
2022-12-22T10:41:55.294Z,7.47
2022-12-22T10:47:00.158Z,7.54
2022-12-22T10:52:20.177Z,7.53
2022-12-22T10:57:29.839Z,7.58
2022-12-22T11:02:31.629Z,7.60
2022-12-22T11:07:36.585Z,7.61
2022-12-22T11:12:54.092Z,7.64
2022-12-22T11:18:17.698Z,7.65
2022-12-22T11:23:25.307Z,7.56
2022-12-22T11:28:36.207Z,7.67
2022-12-22T11:33:55.858Z,7.65
2022-12-22T11:39:07.086Z,7.56
2022-12-22T11:44:42.260Z,7.52
2022-12-22T11:49:53.428Z,7.32
2022-12-22T11:55:11.672Z,7.11
2022-12-22T12:00:15.807Z,6.96
2022-12-22T12:05:33.238Z,6.73
2022-12-22T12:10:43.623Z,6.54
2022-12-22T12:15:52.529Z,6.63
2022-12-22T12:21:00.606Z,6.74
2022-12-22T12:26:21.120Z,6.59
2022-12-22T12:31:27.788Z,6.54
2022-12-22T12:36:48.533Z,6.63
2022-12-22T12:42:32.477Z,6.52
2022-12-22T12:47:35.913Z,6.56
2022-12-22T12:52:40.652Z,6.47
2022-12-22T12:57:49.087Z,6.52
2022-12-22T13:02:58.425Z,6.53
2022-12-22T13:08:14.286Z,6.63
2022-12-22T13:13:22.001Z,6.64
2022-12-22T13:18:23.970Z,6.71
2022-12-22T13:23:51.344Z,6.66
2022-12-22T13:29:01.013Z,6.73
2022-12-22T13:34:24.532Z,6.74
2022-12-22T13:39:26.210Z,6.79
2022-12-22T13:44:34.051Z,6.82
2022-12-22T13:50:07.303Z,6.90
2022-12-22T13:55:00.753Z,6.89
2022-12-22T14:00:03.436Z,6.99
2022-12-22T14:05:13.924Z,7.02
2022-12-22T14:10:25.340Z,7.06
2022-12-22T14:15:27.260Z,7.10
2022-12-22T14:20:36.560Z,7.16
2022-12-22T14:25:41.282Z,7.08
2022-12-22T14:30:46.739Z,7.18
2022-12-22T14:35:48.376Z,7.25
2022-12-22T14:40:56.818Z,7.25
2022-12-22T14:46:08.891Z,7.10
2022-12-22T14:51:10.641Z,7.18
2022-12-22T14:56:14.133Z,7.13
2022-12-22T15:01:30.939Z,7.13
2022-12-22T15:06:36.716Z,7.10
2022-12-22T15:11:44.387Z,7.07
2022-12-22T15:16:46.901Z,6.98
2022-12-22T15:21:51.233Z,7.09
2022-12-22T15:26:52.922Z,7.15
2022-12-22T15:31:54.628Z,6.99
2022-12-22T15:36:56.235Z,7.00
2022-12-22T15:41:57.875Z,7.08
2022-12-22T15:47:00.135Z,7.08
2022-12-22T15:52:04.264Z,7.06
2022-12-22T15:57:05.991Z,7.00
2022-12-22T16:02:12.390Z,7.06
2022-12-22T16:07:14.435Z,6.95
2022-12-22T16:12:18.830Z,7.06
2022-12-22T16:17:25.358Z,7.16
2022-12-22T16:22:33.683Z,7.08
2022-12-22T16:27:35.793Z,7.09
2022-12-22T16:32:37.477Z,6.97
2022-12-22T16:37:39.089Z,7.01
2022-12-22T16:48:14.988Z,7.02
2022-12-22T16:53:16.690Z,7.04
2022-12-22T16:58:18.406Z,7.02
2022-12-22T17:03:25.330Z,7.06
2022-12-22T17:08:34.597Z,7.14
2022-12-22T17:13:37.075Z,7.06
2022-12-22T17:18:38.752Z,7.09
2022-12-22T17:23:47.477Z,7.05
2022-12-22T17:28:50.192Z,7.13
2022-12-22T17:33:51.900Z,7.20
2022-12-22T17:38:54.334Z,7.20
2022-12-22T17:43:55.966Z,7.19
2022-12-22T17:48:57.558Z,7.19
2022-12-22T17:53:59.571Z,7.23
2022-12-22T17:59:01.252Z,7.26
2022-12-22T18:04:02.991Z,7.25
2022-12-22T18:09:06.460Z,7.22
2022-12-22T18:14:12.529Z,7.25
2022-12-22T18:19:14.170Z,7.27
2022-12-22T18:24:17.399Z,7.27
2022-12-22T18:29:21.804Z,7.28
2022-12-22T18:34:25.329Z,7.27
2022-12-22T18:39:32.514Z,7.30
2022-12-22T18:44:35.284Z,7.33
2022-12-22T18:49:37.158Z,7.33
2022-12-22T18:54:39.966Z,7.38
2022-12-22T18:59:42.094Z,7.38
2022-12-22T19:04:43.790Z,7.43
2022-12-22T19:09:46.567Z,7.47
2022-12-22T19:14:51.681Z,7.51
2022-12-22T19:19:53.479Z,7.54
2022-12-22T19:24:58.976Z,7.56
2022-12-22T19:30:04.637Z,7.56
2022-12-22T19:35:14.083Z,7.57
2022-12-22T19:40:19.224Z,7.60
2022-12-22T19:45:28.338Z,7.62
2022-12-22T19:50:34.558Z,7.67
2022-12-22T19:55:46.592Z,7.71
2022-12-22T20:00:48.896Z,7.74
2022-12-22T20:05:50.607Z,7.78
2022-12-22T20:10:58.469Z,7.81
2022-12-22T20:16:01.716Z,7.84
2022-12-22T20:21:12.520Z,7.86
2022-12-22T20:26:24.908Z,7.86
2022-12-22T20:31:26.718Z,7.93
2022-12-22T20:36:31.832Z,7.94
2022-12-22T20:41:33.674Z,7.94
2022-12-22T20:46:35.524Z,7.97
2022-12-22T20:51:37.291Z,7.99
2022-12-22T20:56:40.942Z,7.97
2022-12-22T21:01:42.905Z,8.02
2022-12-22T21:06:55.874Z,8.02
2022-12-22T21:11:57.698Z,8.05
2022-12-22T21:16:59.610Z,8.01
2022-12-22T21:22:02.034Z,8.07
2022-12-22T21:27:05.024Z,8.05
2022-12-22T21:32:06.684Z,8.00
2022-12-22T21:37:16.250Z,8.02
2022-12-22T21:42:19.692Z,8.00
2022-12-22T21:47:21.661Z,8.01
2022-12-22T21:52:23.314Z,8.00
2022-12-22T21:57:25.879Z,8.02
2022-12-22T22:02:38.616Z,8.04
2022-12-22T22:07:40.236Z,8.05
2022-12-22T22:12:41.834Z,8.09
2022-12-22T22:17:47.051Z,8.10
2022-12-22T22:22:52.434Z,8.14
2022-12-22T22:27:54.195Z,8.17
2022-12-22T22:32:56.407Z,8.16
2022-12-22T22:37:58.042Z,8.18
2022-12-22T22:42:59.642Z,8.23
2022-12-22T22:48:04.950Z,8.20
2022-12-22T22:53:09.477Z,8.19
2022-12-22T22:58:11.623Z,8.26
2022-12-22T23:03:13.507Z,8.29
2022-12-22T23:08:15.162Z,8.21
2022-12-22T23:13:16.790Z,8.26
2022-12-22T23:18:18.395Z,8.20
2022-12-22T23:23:20.171Z,8.22
2022-12-22T23:28:21.997Z,8.24
2022-12-22T23:33:24.097Z,8.29
2022-12-22T23:38:25.888Z,8.17
2022-12-22T23:43:27.563Z,8.16
2022-12-22T23:48:29.169Z,8.07
2022-12-22T23:53:30.873Z,8.12
2022-12-22T23:58:32.552Z,8.13
